Airfield :
LOGIN :

Register | Disclaimer

   EN    FR    IT 

 










Legend :    VFR   Marginal VFR   IFR   Intensive IFR   Very Intensive IFR
Visi :
Ceiling :
>= 8 km
>= 3000ft
5 to 8 km
1000 to 3000 ft
1500m to 5 km
500 to 1000 ft
800 to 1500m
200 to 500 ft
< 800m
< 200 ft
Symbols :   Thunderstorms  Fog  Heavy snow  Heavy precipitations  Wind > 20 kt
SIGMETs :     Misc.  Thunderstorms  Icing  Turbulence  Mountain Waves  Volcanic Ashes







- Airport Elevation : 236 ft
- IATA code : MMX


ESMS - Malmö Sturup

CURRENT METAR :
  • 250020Z 26011KT CAVOK 08/05 Q1006

EXPIRED METARs :
  • 242350Z 26013KT CAVOK 08/04 Q1006
  • 242320Z 25012KT CAVOK 08/04 Q1006
  • 242250Z 25012KT CAVOK 08/05 Q1006
  • 242220Z 26014KT CAVOK 08/05 Q1007
  • 242150Z 26014KT CAVOK 09/04 Q1007

TAF TAF ESMS
Valid from the 25 at 00:00 until the 26 at 00:00 UTC


242301Z 2500/2524 25012KT 9999 BKN020
TEMPO 2503/2513 4000 RA BKN012
TEMPO 2516/2524 SHRA BKN012 SCT020CB
No reported NOTAMs for that airfield.



MET'MAP, your aeronautical weather chart ! - Copyright ORBIFLY December 2007 - Disclaimer

ORBIFLY MET'MAP TEAM :

Programming & Development : Alexandra Zaïnal
Concept & Development : Baudouin d'Aumeries
Co-Development & Prog : Marc-Olivier Méhu
Technical & hardware support : Manuel Goepfert

Contact : metmap@orbifly.com




SOURCES & CREDITS :

   NOAA